Time;durP1;ratioP1;P1;durP2;ratioP2;P2;SDS_P1;SDS_P2;PMS_P1;PMS_P2;Temp;Humidity;BMP_temperature;BMP_pressure;BME280_temperature;BME280_humidity;BME280_pressure;Samples;Min_cycle;Max_cycle;Signal;HPM_P1;HPM_P2
2023/10/09 00:01:01;;;;;;;1.40;0.90;;;;;;;13.23;42.27;100559.84;4484212;31;33765;-79
2023/10/09 00:03:31;;;;;;;1.85;1.02;;;;;;;13.33;42.35;100564.09;4490257;31;33588;-81
2023/10/09 00:06:02;;;;;;;1.77;1.10;;;;;;;13.30;42.17;100561.53;4491091;31;34013;-80
2023/10/09 00:08:32;;;;;;;1.58;1.10;;;;;;;13.24;42.28;100557.22;4489731;31;33728;-80
2023/10/09 00:11:16;;;;;;;0.90;0.90;;;;;;;13.34;42.18;100558.03;4486284;31;34585;-81
2023/10/09 00:13:51;;;;;;;1.10;0.80;;;;;;;13.01;43.52;100547.00;4484621;31;34423;-81
2023/10/09 00:16:32;;;;;;;1.48;1.02;;;;;;;13.05;44.32;100555.69;4487351;31;33535;-79
2023/10/09 00:19:13;;;;;;;1.08;0.90;;;;;;;13.27;43.59;100551.16;4490987;31;34610;-81
2023/10/09 00:21:43;;;;;;;1.55;0.90;;;;;;;13.40;42.75;100551.88;4488522;31;31607;-78
2023/10/09 00:24:23;;;;;;;1.02;0.90;;;;;;;13.35;42.34;100556.28;4489949;31;33353;-80
2023/10/09 00:26:55;;;;;;;1.52;0.98;;;;;;;13.42;42.00;100537.09;4476506;31;34055;-80
2023/10/09 00:29:34;;;;;;;1.02;0.80;;;;;;;12.94;43.45;100542.75;4485243;31;34092;-80
2023/10/09 00:32:15;;;;;;;1.37;0.90;;;;;;;13.12;43.33;100538.22;4493301;31;34990;-80
2023/10/09 00:34:44;;;;;;;1.37;1.00;;;;;;;13.42;42.50;100539.69;4490659;31;33734;-79
2023/10/09 00:37:16;;;;;;;0.80;0.80;;;;;;;12.92;44.68;100541.87;4482628;31;33789;-81
2023/10/09 00:39:48;;;;;;;1.40;0.90;;;;;;;12.77;45.45;100542.88;4488522;31;34653;-80
2023/10/09 00:42:27;;;;;;;1.52;0.90;;;;;;;12.85;45.70;100545.41;4490577;31;33112;-81
2023/10/09 00:45:02;;;;;;;1.00;1.00;;;;;;;12.76;45.16;100542.91;4494293;31;34019;-80
2023/10/09 00:47:35;;;;;;;0.82;0.70;;;;;;;12.93;44.42;100538.41;4497576;31;33064;-79
2023/10/09 00:50:10;;;;;;;;;;;;;;;13.45;42.79;100535.28;4488208;31;34281;-79
2023/10/09 00:52:42;;;;;;;0.95;0.85;;;;;;;13.22;44.32;100529.47;4490116;31;34768;-79
2023/10/09 00:55:14;;;;;;;2.00;0.98;;;;;;;13.39;43.34;100524.09;4482065;31;33554;-79
2023/10/09 00:57:50;;;;;;;2.12;1.23;;;;;;;13.31;43.52;100534.56;4487229;31;33678;-80
2023/10/09 01:00:32;;;;;;;1.90;0.90;;;;;;;13.23;44.32;100539.84;4480028;32;34073;-80
2023/10/09 01:03:18;;;;;;;0.82;0.75;;;;;;;13.12;45.84;100544.31;4475796;32;34795;-79
2023/10/09 01:05:56;;;;;;;0.90;0.90;;;;;;;13.18;45.77;100544.25;4474277;31;34427;-80
2023/10/09 01:08:30;;;;;;;1.60;0.77;;;;;;;13.44;43.65;100543.16;4475899;32;34084;-82
2023/10/09 01:11:09;;;;;;;1.25;0.90;;;;;;;13.26;43.90;100540.69;4475219;31;33640;-80
2023/10/09 01:13:52;;;;;;;1.25;1.00;;;;;;;13.32;43.85;100546.75;4487618;31;34085;-80
2023/10/09 01:16:24;;;;;;;1.67;1.00;;;;;;;13.31;44.26;100529.38;4485344;31;33786;-79
2023/10/09 01:18:57;;;;;;;1.15;0.88;;;;;;;13.27;44.90;100532.03;4475598;32;33832;-80
2023/10/09 01:21:27;;;;;;;1.00;0.90;;;;;;;13.52;43.03;100536.09;4476860;31;34344;-79
2023/10/09 01:24:04;;;;;;;1.17;0.90;;;;;;;13.58;42.89;100533.41;4480981;31;33755;-81
2023/10/09 01:26:39;;;;;;;1.02;0.93;;;;;;;13.34;43.18;100538.94;4483050;31;33753;-79
2023/10/09 01:29:10;;;;;;;1.05;0.95;;;;;;;13.51;43.35;100544.81;4479579;31;33131;-80
2023/10/09 01:31:44;;;;;;;;;;;;;;;13.15;45.29;100546.88;4480895;31;33555;-81
2023/10/09 01:34:14;;;;;;;1.20;0.93;;;;;;;13.40;43.79;100549.25;4491030;31;34203;-79
2023/10/09 01:36:48;;;;;;;0.95;0.88;;;;;;;13.44;42.95;100541.41;4475383;31;33020;-81
2023/10/09 01:39:28;;;;;;;0.70;0.70;;;;;;;13.52;43.00;100537.84;4480573;31;33294;-80
2023/10/09 01:42:01;;;;;;;0.73;0.73;;;;;;;13.23;43.38;100544.19;4475590;32;33627;-79
2023/10/09 01:44:34;;;;;;;0.82;0.82;;;;;;;13.35;43.35;100541.50;4476556;31;34135;-79
2023/10/09 01:47:07;;;;;;;1.08;0.95;;;;;;;13.33;43.87;100540.62;4479778;31;34381;-80
2023/10/09 01:49:37;;;;;;;1.08;0.70;;;;;;;13.21;44.49;100540.75;4490856;31;32915;-81
2023/10/09 01:52:09;;;;;;;5.03;1.40;;;;;;;13.34;44.00;100544.12;4497185;31;34502;-79
2023/10/09 01:54:40;;;;;;;;;;;;;;;13.39;43.83;100548.41;4483740;31;34867;-80
2023/10/09 01:57:12;;;;;;;5.28;1.23;;;;;;;13.56;44.01;100547.34;4485148;31;34720;-79
2023/10/09 01:59:49;;;;;;;1.08;0.90;;;;;;;13.66;43.52;100560.25;4478374;31;33139;-81
2023/10/09 02:02:33;;;;;;;4.25;1.40;;;;;;;13.55;44.05;100567.31;4486031;31;33978;-82
2023/10/09 02:05:09;;;;;;;1.10;0.93;;;;;;;13.52;44.59;100574.34;4486124;31;33608;-80
2023/10/09 02:07:44;;;;;;;1.55;1.00;;;;;;;13.47;44.88;100566.56;4484945;31;34462;-81
2023/10/09 02:10:25;;;;;;;3.35;1.25;;;;;;;13.51;44.42;100567.41;4487558;31;33076;-81
2023/10/09 02:12:58;;;;;;;;;;;;;;;13.27;44.57;100550.25;4491467;31;35061;-80
2023/10/09 02:15:51;;;;;;;2.25;1.20;;;;;;;13.26;44.75;100551.12;4488296;31;33666;-81
2023/10/09 02:18:39;;;;;;;0.65;0.65;;;;;;;13.37;44.81;100544.09;4487810;31;33955;-80
2023/10/09 02:21:15;;;;;;;2.05;0.90;;;;;;;13.05;46.42;100544.38;4497680;31;33338;-81
2023/10/09 02:23:49;;;;;;;1.20;0.93;;;;;;;13.13;47.13;100543.44;4489642;31;33690;-80
2023/10/09 02:26:25;;;;;;;1.35;1.00;;;;;;;13.23;45.64;100536.38;4491975;31;33557;-81
2023/10/09 02:28:59;;;;;;;1.27;1.12;;;;;;;13.21;45.52;100544.19;4491291;31;33861;-80
2023/10/09 02:31:35;;;;;;;0.90;0.90;;;;;;;13.49;44.31;100525.69;4480494;31;33025;-80
2023/10/09 02:34:07;;;;;;;1.83;1.00;;;;;;;13.55;44.42;100536.03;4486494;31;33986;-80
2023/10/09 02:36:38;;;;;;;1.35;1.05;;;;;;;13.47;44.25;100535.28;4491687;31;34420;-82
2023/10/09 02:39:22;;;;;;;0.60;0.60;;;;;;;13.49;44.50;100530.91;4489611;31;33404;-82
2023/10/09 02:42:01;;;;;;;1.52;0.93;;;;;;;13.11;49.39;100524.34;4477287;32;33165;-80
2023/10/09 02:44:34;;;;;;;1.33;1.05;;;;;;;13.31;48.22;100538.94;4474354;32;33783;-81
2023/10/09 02:47:05;;;;;;;0.73;0.68;;;;;;;13.42;48.47;100531.87;4495908;31;33744;-80
2023/10/09 02:49:36;;;;;;;0.82;0.82;;;;;;;13.39;48.84;100518.87;4481047;31;36026;-80
2023/10/09 02:52:07;;;;;;;3.20;1.30;;;;;;;13.11;49.70;100515.66;4492778;31;34065;-80
2023/10/09 02:54:42;;;;;;;1.67;0.85;;;;;;;13.11;49.75;100500.91;4487048;31;35246;-82
2023/10/09 02:57:21;;;;;;;1.33;0.90;;;;;;;12.69;51.84;100503.03;4477612;31;33600;-80
2023/10/09 02:59:52;;;;;;;0.85;0.73;;;;;;;12.85;50.90;100505.50;4490066;31;33642;-80
2023/10/09 03:02:24;;;;;;;0.80;0.80;;;;;;;12.98;50.07;100505.37;4476323;31;32467;-81
2023/10/09 03:04:55;;;;;;;1.45;0.90;;;;;;;13.29;48.29;100510.31;4479029;31;33407;-82
2023/10/09 03:07:24;;;;;;;0.82;0.82;;;;;;;13.03;49.93;100508.78;4492848;31;33425;-81
2023/10/09 03:09:53;;;;;;;2.22;1.10;;;;;;;13.06;50.25;100509.66;4491316;31;33607;-80
2023/10/09 03:12:26;;;;;;;0.80;0.80;;;;;;;13.16;48.86;100517.34;4496277;31;33025;-80
2023/10/09 03:14:58;;;;;;;0.80;0.77;;;;;;;13.46;46.42;100512.72;4479503;31;34006;-81
2023/10/09 03:17:28;;;;;;;1.15;0.93;;;;;;;12.96;48.58;100494.09;4494007;31;32275;-79
2023/10/09 03:19:58;;;;;;;3.00;0.90;;;;;;;13.23;46.71;100494.69;4490314;31;33964;-80
2023/10/09 03:22:27;;;;;;;1.00;0.88;;;;;;;13.21;46.57;100486.03;4496623;31;32430;-81
2023/10/09 03:24:56;;;;;;;3.05;1.60;;;;;;;13.13;46.47;100490.47;4482751;31;34199;-81
2023/10/09 03:27:27;;;;;;;1.27;0.98;;;;;;;13.12;44.98;100484.41;4493455;31;33731;-80
2023/10/09 03:29:55;;;;;;;1.25;0.80;;;;;;;13.15;45.66;100476.53;4483802;31;33538;-79
2023/10/09 03:32:24;;;;;;;2.00;0.88;;;;;;;13.06;45.72;100484.44;4477273;31;34221;-80
2023/10/09 03:34:55;;;;;;;1.25;0.80;;;;;;;13.08;45.83;100474.87;4484259;31;33372;-81
2023/10/09 03:37:34;;;;;;;2.30;1.10;;;;;;;13.15;45.96;100483.50;4488356;31;33451;-79
2023/10/09 03:40:06;;;;;;;1.10;0.90;;;;;;;13.16;45.79;100486.06;4488359;31;34011;-81
2023/10/09 03:42:38;;;;;;;1.20;0.90;;;;;;;13.12;45.13;100492.22;4477040;32;33452;-79
2023/10/09 03:45:18;;;;;;;1.50;1.00;;;;;;;12.93;46.53;100499.34;4475721;32;34922;-81
2023/10/09 03:47:53;;;;;;;2.00;1.90;;;;;;;13.10;46.66;100504.38;4482499;32;33834;-80
2023/10/09 03:50:29;;;;;;;0.90;0.80;;;;;;;13.18;46.40;100493.88;4479397;31;34626;-80
2023/10/09 03:52:58;;;;;;;2.53;0.90;;;;;;;13.11;46.35;100492.22;4477627;32;33982;-81
2023/10/09 03:55:28;;;;;;;1.20;0.90;;;;;;;13.24;45.88;100493.84;4475581;31;33733;-82
2023/10/09 03:57:59;;;;;;;1.65;0.85;;;;;;;13.28;46.12;100486.84;4487368;31;35672;-80
2023/10/09 04:00:31;;;;;;;1.87;0.98;;;;;;;13.27;46.50;100492.94;4484222;31;33773;-80
2023/10/09 04:03:01;;;;;;;1.30;1.20;;;;;;;13.05;45.59;100489.66;4491313;31;34340;-81
2023/10/09 04:05:30;;;;;;;1.30;0.90;;;;;;;13.16;44.74;100487.81;4488085;31;34598;-81
2023/10/09 04:08:01;;;;;;;3.15;1.15;;;;;;;13.31;44.41;100479.00;4477682;31;33979;-82
2023/10/09 04:10:51;;;;;;;1.80;1.00;;;;;;;13.18;43.71;100473.03;4492863;31;33579;-81
2023/10/09 04:13:33;;;;;;;1.05;0.88;;;;;;;13.29;43.79;100483.34;4496138;31;33140;-82
2023/10/09 04:16:10;;;;;;;1.25;1.00;;;;;;;13.02;44.02;100487.97;4483213;31;33502;-80
2023/10/09 04:18:41;;;;;;;0.80;0.80;;;;;;;12.93;44.15;100488.09;4483781;31;33589;-79
2023/10/09 04:21:18;;;;;;;0.75;0.75;;;;;;;13.17;43.27;100473.94;4483494;31;33744;-80
2023/10/09 04:24:09;;;;;;;1.62;0.93;;;;;;;12.96;43.66;100475.03;4488239;31;33404;-81
2023/10/09 04:26:44;;;;;;;1.08;0.98;;;;;;;13.15;42.48;100481.75;4488993;31;33538;-79
2023/10/09 04:29:18;;;;;;;1.70;1.02;;;;;;;13.31;42.77;100476.38;4485514;31;33522;-81
2023/10/09 04:31:51;;;;;;;0.80;0.80;;;;;;;13.14;42.70;100464.37;4479794;31;34034;-83
2023/10/09 04:34:22;;;;;;;1.83;1.42;;;;;;;13.15;42.60;100466.12;4491412;31;34190;-80
2023/10/09 04:36:56;;;;;;;1.62;0.90;;;;;;;13.35;42.37;100460.69;4488415;31;33795;-81
2023/10/09 04:42:36;;;;;;;1.12;0.88;;;;;;;13.18;42.51;100454.81;4472342;31;33727;-80
2023/10/09 04:45:51;;;;;;;1.37;0.80;;;;;;;13.40;42.47;100445.00;4478141;31;32988;-80
2023/10/09 04:48:09;;;;;;;1.70;0.82;;;;;;;13.36;43.49;100456.34;4492383;31;33549;-80
2023/10/09 04:51:11;;;;;;;0.85;0.80;;;;;;;13.43;43.13;100440.63;4482423;31;34437;-81
2023/10/09 04:53:43;;;;;;;1.00;0.80;;;;;;;13.51;42.57;100447.50;4482717;31;33868;-80
2023/10/09 04:56:15;;;;;;;1.45;1.10;;;;;;;13.14;43.07;100446.13;4482093;31;33264;-82
2023/10/09 04:58:48;;;;;;;1.58;0.90;;;;;;;13.40;43.14;100431.97;4492550;31;33937;-81
2023/10/09 05:01:35;;;;;;;1.80;1.07;;;;;;;13.47;43.40;100441.44;4481934;31;33926;-81
2023/10/09 05:04:15;;;;;;;2.85;1.10;;;;;;;13.46;43.37;100434.53;4478363;31;32008;-82
2023/10/09 05:06:57;;;;;;;1.10;0.80;;;;;;;13.58;42.86;100425.66;4479741;31;32942;-80
2023/10/09 05:09:26;;;;;;;1.70;1.00;;;;;;;13.57;42.83;100416.13;4489848;31;33990;-79
2023/10/09 05:12:15;;;;;;;2.80;1.30;;;;;;;13.45;42.86;100415.38;4475484;31;34759;-79
2023/10/09 05:15:08;;;;;;;0.77;0.60;;;;;;;13.59;42.35;100410.00;4479718;31;34589;-81
2023/10/09 05:17:38;;;;;;;0.93;0.87;;;;;;;13.45;42.81;100423.22;4482653;31;33255;-80
2023/10/09 05:23:21;;;;;;;1.30;1.00;;;;;;;13.36;43.41;100417.25;4476708;31;33995;-81
2023/10/09 05:25:55;;;;;;;1.02;0.90;;;;;;;13.34;44.07;100406.00;4487890;31;33948;-80
2023/10/09 05:28:30;;;;;;;0.93;0.85;;;;;;;13.58;42.62;100418.72;4489376;31;33406;-80
2023/10/09 05:31:09;;;;;;;0.73;0.73;;;;;;;13.33;43.46;100423.37;4485478;31;33580;-80
2023/10/09 05:33:39;;;;;;;0.95;0.90;;;;;;;13.41;43.36;100420.69;4490360;31;35381;-80
2023/10/09 05:38:59;;;;;;;1.20;0.80;;;;;;;13.58;42.75;100421.31;4479368;31;34075;-80
2023/10/09 05:41:47;;;;;;;3.05;0.90;;;;;;;13.74;41.94;100423.69;4479743;31;33559;-81
2023/10/09 06:04:15;;;;;;;0.73;0.62;;;;;;;13.80;41.93;100431.44;4366942;32;33385;-82
2023/10/09 06:06:45;;;;;;;1.17;0.77;;;;;;;13.77;41.55;100436.69;4364800;32;33744;-81
2023/10/09 06:12:49;;;;;;;1.70;0.90;;;;;;;13.86;41.97;100415.69;4368531;32;32963;-80
2023/10/09 06:15:50;;;;;;;2.67;1.08;;;;;;;13.59;42.35;100414.34;4369057;32;35418;-80
2023/10/09 06:18:33;;;;;;;1.20;0.80;;;;;;;13.85;41.48;100398.34;4362235;32;34742;-80
2023/10/09 06:21:09;;;;;;;1.50;1.00;;;;;;;13.87;40.83;100392.19;4362651;32;33254;-81
2023/10/09 06:24:09;;;;;;;3.72;1.75;;;;;;;14.02;40.13;100395.47;4366330;32;33943;-81
2023/10/09 06:26:41;;;;;;;1.80;1.00;;;;;;;13.77;40.84;100392.34;4375670;32;33529;-81
2023/10/09 06:29:17;;;;;;;1.08;0.80;;;;;;;13.70;40.47;100393.31;4402841;32;33250;-81
2023/10/09 06:34:35;;;;;;;1.02;0.80;;;;;;;14.00;40.10;100385.03;4398897;32;33014;-80
2023/10/09 06:37:17;;;;;;;1.05;0.90;;;;;;;14.16;40.09;100387.38;4419840;31;34469;-81
2023/10/09 06:42:43;;;;;;;1.87;1.23;;;;;;;14.09;39.75;100399.69;4476243;31;34036;-80
2023/10/09 06:45:16;;;;;;;3.05;1.55;;;;;;;14.13;39.29;100403.09;4476280;31;33291;-81
2023/10/09 06:47:55;;;;;;;2.97;1.33;;;;;;;14.00;39.95;100400.69;4483252;31;33906;-81
2023/10/09 06:50:24;;;;;;;2.30;1.58;;;;;;;14.18;39.28;100393.44;4484404;31;34642;-80
2023/10/09 06:55:49;;;;;;;2.55;1.30;;;;;;;14.21;37.84;100398.62;4476273;31;33285;-80
2023/10/09 06:58:23;;;;;;;1.40;0.95;;;;;;;14.13;37.80;100400.50;4481406;31;33900;-81
2023/10/09 07:03:53;;;;;;;3.53;1.15;;;;;;;14.07;38.13;100381.44;4480585;32;33460;-80
2023/10/09 07:06:24;;;;;;;1.08;0.80;;;;;;;14.28;37.26;100379.37;4485354;31;32743;-80
2023/10/09 07:09:15;;;;;;;2.47;1.20;;;;;;;14.10;37.74;100364.88;4483522;31;34302;-82
2023/10/09 07:15:01;;;;;;;1.20;0.80;;;;;;;14.46;36.51;100350.31;4480136;31;33984;-80
2023/10/09 07:17:43;;;;;;;1.55;1.05;;;;;;;14.24;36.13;100357.69;4482854;31;33420;-81
2023/10/09 07:20:36;;;;;;;3.58;1.27;;;;;;;14.32;35.53;100361.91;4488933;31;35215;-82
2023/10/09 07:23:14;;;;;;;1.40;0.77;;;;;;;14.02;35.93;100362.41;4491431;31;34010;-80
2023/10/09 07:25:54;;;;;;;0.82;0.82;;;;;;;14.40;34.84;100360.00;4473327;31;103899;-79
2023/10/09 07:28:42;;;;;;;1.42;0.90;;;;;;;14.16;36.20;100358.69;4475800;31;33322;-80
2023/10/09 07:31:24;;;;;;;2.70;0.90;;;;;;;14.36;35.91;100356.59;4478544;31;33451;-81
2023/10/09 07:33:57;;;;;;;1.87;1.00;;;;;;;14.19;36.38;100350.81;4484857;31;34527;-82
2023/10/09 07:36:37;;;;;;;3.37;0.98;;;;;;;14.19;36.62;100332.56;4482070;31;34306;-79
2023/10/09 07:39:15;;;;;;;1.20;1.05;;;;;;;14.40;36.50;100313.91;4480677;31;33748;-81
2023/10/09 07:42:01;;;;;;;0.52;0.52;;;;;;;14.44;36.14;100299.03;4478390;31;33034;-81
2023/10/09 07:44:38;;;;;;;0.65;0.65;;;;;;;14.30;35.41;100283.63;4477892;31;34295;-81
2023/10/09 07:47:19;;;;;;;2.15;0.80;;;;;;;14.43;35.55;100268.59;4481273;31;33968;-80
2023/10/09 07:49:57;;;;;;;1.27;0.82;;;;;;;14.34;36.44;100269.62;4477371;31;32870;-79
2023/10/09 07:52:27;;;;;;;0.93;0.70;;;;;;;14.50;35.96;100260.59;4482292;31;33206;-80
2023/10/09 07:55:01;;;;;;;2.75;1.02;;;;;;;14.49;35.04;100245.81;4480733;31;33459;-79
2023/10/09 07:57:38;;;;;;;0.82;0.70;;;;;;;14.52;34.51;100237.94;4474612;32;33314;-80
2023/10/09 08:00:35;;;;;;;0.70;0.70;;;;;;;14.60;34.80;100248.25;4479859;31;31541;-79
2023/10/09 08:03:09;;;;;;;4.35;1.10;;;;;;;14.56;34.91;100243.97;4479554;31;32735;-80
2023/10/09 08:05:44;;;;;;;0.70;0.70;;;;;;;14.68;33.96;100238.50;4474965;31;34738;-79
2023/10/09 08:08:39;;;;;;;1.42;0.73;;;;;;;14.69;34.51;100242.84;4483881;31;34194;-81
2023/10/09 08:14:02;;;;;;;0.75;0.70;;;;;;;14.73;33.39;100257.53;4481809;31;33627;-80
2023/10/09 08:16:41;;;;;;;0.70;0.70;;;;;;;14.72;33.32;100253.22;4479769;31;34460;-81
2023/10/09 08:19:32;;;;;;;1.20;1.02;;;;;;;14.63;33.69;100234.28;4474172;32;33606;-81
2023/10/09 08:24:52;;;;;;;1.35;0.70;;;;;;;15.01;32.93;100223.00;4484286;31;32957;-80
2023/10/09 08:30:28;;;;;;;0.50;0.50;;;;;;;15.31;33.05;100213.56;4484982;31;33442;-82
2023/10/09 08:33:28;;;;;;;0.77;0.77;;;;;;;15.09;32.65;100212.34;4481178;31;34161;-81
2023/10/09 08:36:01;;;;;;;2.40;0.82;;;;;;;14.82;33.06;100213.84;4485467;31;33518;-80
2023/10/09 08:38:33;;;;;;;0.60;0.60;;;;;;;15.26;32.40;100204.97;4494367;31;33812;-80
2023/10/09 08:41:17;;;;;;;1.08;0.60;;;;;;;15.29;31.73;100204.03;4476630;31;33743;-80
2023/10/09 08:43:51;;;;;;;1.98;0.90;;;;;;;15.20;32.06;100202.50;4481789;32;33098;-80
2023/10/09 08:46:22;;;;;;;1.17;0.77;;;;;;;15.30;31.68;100200.53;4476004;31;33533;-80
2023/10/09 08:48:54;;;;;;;1.27;0.70;;;;;;;15.39;31.05;100192.47;4476203;32;33846;-80
2023/10/09 08:51:25;;;;;;;0.60;0.60;;;;;;;15.45;31.13;100191.44;4477876;32;33097;-80
2023/10/09 08:53:54;;;;;;;0.75;0.75;;;;;;;15.20;31.06;100194.69;4477138;31;33748;-80
2023/10/09 08:56:23;;;;;;;1.08;0.70;;;;;;;15.00;31.71;100189.03;4483708;31;34787;-79
2023/10/09 08:58:53;;;;;;;1.15;0.70;;;;;;;15.33;31.29;100185.63;4477983;32;34548;-79
2023/10/09 09:01:27;;;;;;;1.45;0.95;;;;;;;15.17;31.97;100189.50;4478378;31;33262;-79
2023/10/09 09:03:59;;;;;;;0.98;0.70;;;;;;;15.40;32.02;100190.72;4477975;31;33482;-80
2023/10/09 09:06:40;;;;;;;2.17;1.08;;;;;;;15.52;31.69;100187.78;4491391;31;34032;-81
2023/10/09 09:09:15;;;;;;;0.55;0.55;;;;;;;15.55;32.05;100185.09;4491171;31;33552;-79
2023/10/09 09:11:50;;;;;;;1.92;0.68;;;;;;;15.50;32.09;100166.91;4483579;31;34138;-80
2023/10/09 09:14:22;;;;;;;1.23;0.80;;;;;;;15.43;32.04;100162.72;4486000;31;33036;-80
2023/10/09 09:16:52;;;;;;;1.00;0.73;;;;;;;15.75;32.49;100151.47;4486262;31;34360;-80
2023/10/09 09:19:31;;;;;;;0.65;0.65;;;;;;;15.67;32.63;100158.59;4492245;31;34128;-81
2023/10/09 09:22:11;;;;;;;1.45;0.60;;;;;;;16.02;30.73;100151.59;4499445;31;33680;-79
2023/10/09 09:24:46;;;;;;;1.10;0.77;;;;;;;15.79;32.88;100155.69;4493723;31;33196;-81
2023/10/09 09:27:18;;;;;;;0.55;0.55;;;;;;;15.82;32.31;100152.13;4493393;31;33568;-80
2023/10/09 09:29:53;;;;;;;0.95;0.65;;;;;;;16.23;33.23;100157.12;4493609;31;34001;-81
2023/10/09 09:32:36;;;;;;;1.98;0.80;;;;;;;15.90;31.89;100154.53;4493593;31;33603;-80
2023/10/09 09:35:18;;;;;;;0.90;0.90;;;;;;;16.15;32.16;100149.47;4499429;31;33063;-80
2023/10/09 09:37:54;;;;;;;0.77;0.62;;;;;;;16.05;31.32;100142.81;4493939;31;35146;-80
2023/10/09 09:40:30;;;;;;;1.00;0.70;;;;;;;16.16;31.77;100148.56;4493484;31;34752;-81
2023/10/09 09:43:06;;;;;;;0.57;0.52;;;;;;;16.29;31.55;100149.94;4493590;31;34464;-80
2023/10/09 09:45:36;;;;;;;4.32;1.12;;;;;;;16.26;32.01;100162.25;4487914;31;33138;-82
2023/10/09 09:48:06;;;;;;;1.85;0.82;;;;;;;15.90;31.56;100151.91;4491014;31;33955;-80
2023/10/09 09:50:43;;;;;;;0.70;0.70;;;;;;;16.21;31.79;100155.41;4483799;31;34420;-82
2023/10/09 09:53:16;;;;;;;1.23;0.77;;;;;;;16.36;31.54;100138.38;4483700;31;33840;-82
2023/10/09 09:55:55;;;;;;;5.00;0.75;;;;;;;16.37;32.06;100139.25;4485138;31;33493;-79
2023/10/09 09:58:32;;;;;;;1.58;0.95;;;;;;;16.66;31.71;100140.97;4486017;31;33648;-82
2023/10/09 10:01:15;;;;;;;0.73;0.60;;;;;;;16.36;31.55;100133.16;4483291;32;34447;-80
2023/10/09 10:03:47;;;;;;;0.70;0.68;;;;;;;16.35;31.27;100134.03;4482962;32;33761;-81
2023/10/09 10:06:19;;;;;;;1.50;0.70;;;;;;;16.23;32.63;100123.94;4477764;32;34181;-81
2023/10/09 10:08:51;;;;;;;1.30;0.80;;;;;;;16.13;33.01;100120.72;4477830;32;33871;-82
2023/10/09 10:11:45;;;;;;;1.05;0.70;;;;;;;16.10;32.53;100128.69;4481788;31;34196;-80
2023/10/09 10:14:22;;;;;;;0.90;0.70;;;;;;;16.35;32.58;100113.09;4477662;32;33057;-82
2023/10/09 10:17:16;;;;;;;1.00;0.55;;;;;;;16.29;32.11;100092.34;4483171;32;33375;-81
2023/10/09 10:20:31;;;;;;;0.50;0.50;;;;;;;16.57;31.52;100076.62;4481235;32;33928;-80
2023/10/09 10:23:19;;;;;;;2.00;0.80;;;;;;;16.92;30.91;100037.97;4481256;32;34919;-80
2023/10/09 10:25:59;;;;;;;0.90;0.65;;;;;;;16.90;31.47;100060.75;4491904;31;33986;-80
2023/10/09 10:28:35;;;;;;;1.40;0.60;;;;;;;16.86;31.25;100061.75;4480746;31;32849;-82
2023/10/09 10:31:07;;;;;;;1.83;1.00;;;;;;;17.14;31.88;100032.84;4478219;32;34687;-81
2023/10/09 10:34:06;;;;;;;1.20;0.70;;;;;;;17.06;31.32;100024.41;4477323;32;34372;-80
2023/10/09 10:36:36;;;;;;;1.50;0.70;;;;;;;16.95;31.29;100016.06;4433844;32;35558;-81
2023/10/09 10:39:10;;;;;;;0.93;0.70;;;;;;;16.92;32.04;100005.69;4432171;32;33252;-81
2023/10/09 10:41:50;;;;;;;0.45;0.45;;;;;;;16.88;32.04;100019.78;4428388;32;34300;-82
2023/10/09 10:44:37;;;;;;;0.62;0.57;;;;;;;16.93;31.42;100012.63;4428309;32;33408;-82
2023/10/09 10:47:21;;;;;;;1.05;0.70;;;;;;;17.21;31.92;100004.66;4443362;32;33869;-81
2023/10/09 10:49:57;;;;;;;0.75;0.60;;;;;;;17.27;30.81;99986.94;4443593;32;33097;-79
2023/10/09 10:52:41;;;;;;;0.70;0.60;;;;;;;17.01;31.01;99984.38;4449370;32;34394;-81
2023/10/09 10:58:10;;;;;;;2.03;1.35;;;;;;;17.30;30.26;99972.88;4443120;32;34038;-79
2023/10/09 11:03:35;;;;;;;1.30;0.80;;;;;;;17.33;31.15;99982.41;4443524;32;33497;-80
2023/10/09 11:06:13;;;;;;;1.48;0.60;;;;;;;17.24;31.08;99975.72;4443547;32;34174;-81
2023/10/09 11:08:54;;;;;;;3.28;0.70;;;;;;;17.38;31.10;99983.94;4449032;32;33658;-80
2023/10/09 11:11:32;;;;;;;0.60;0.60;;;;;;;17.04;31.07;99961.53;4450191;32;33179;-80
2023/10/09 11:14:14;;;;;;;1.45;0.90;;;;;;;17.42;30.97;99933.09;4478522;31;33618;-81
2023/10/09 11:16:42;;;;;;;1.48;0.70;;;;;;;17.59;30.70;99929.81;4483943;31;33683;-81
2023/10/09 11:22:27;;;;;;;0.70;0.60;;;;;;;17.89;30.63;99982.06;4493066;31;33103;-80
2023/10/09 11:25:01;;;;;;;0.70;0.60;;;;;;;18.04;29.62;99964.84;4498171;31;33426;-81
2023/10/09 11:27:33;;;;;;;1.20;0.90;;;;;;;18.03;30.00;99964.00;4498524;31;33761;-80
2023/10/09 11:30:05;;;;;;;0.85;0.70;;;;;;;17.84;29.98;99945.50;4492995;31;34603;-80
2023/10/09 11:32:38;;;;;;;1.48;0.60;;;;;;;18.04;29.52;99930.72;4492872;31;33478;-80
2023/10/09 11:35:13;;;;;;;0.75;0.65;;;;;;;18.03;29.85;99944.78;4492631;31;33276;-80
2023/10/09 11:37:43;;;;;;;0.75;0.70;;;;;;;18.22;30.01;99947.50;4497020;31;33541;-80
2023/10/09 11:40:33;;;;;;;0.82;0.68;;;;;;;18.02;30.36;99953.56;4486592;31;34834;-81
2023/10/09 11:43:12;;;;;;;1.95;0.80;;;;;;;18.55;30.12;99961.03;4477304;32;34208;-80
2023/10/09 11:45:54;;;;;;;1.85;0.73;;;;;;;18.43;29.13;99966.78;4475815;32;34440;-81
2023/10/09 11:48:33;;;;;;;;;;;;;;;18.57;29.46;99980.22;4477772;32;34201;-80
2023/10/09 11:53:45;;;;;;;0.50;0.50;;;;;;;18.78;30.10;99980.28;4492197;31;32747;-80
2023/10/09 11:56:16;;;;;;;1.48;0.88;;;;;;;18.92;31.16;99970.03;4497151;31;33906;-80
2023/10/09 11:58:49;;;;;;;1.48;0.50;;;;;;;18.87;30.54;99964.09;4492625;31;32927;-80
2023/10/09 12:01:20;;;;;;;1.15;0.62;;;;;;;18.89;30.99;99955.22;4492662;31;33520;-80
2023/10/09 12:03:50;;;;;;;1.03;0.67;;;;;;;18.84;30.61;99937.94;4492338;31;33376;-81
2023/10/09 12:06:22;;;;;;;0.88;0.55;;;;;;;18.89;31.51;99941.22;4497243;31;32730;-80
2023/10/09 12:08:53;;;;;;;1.50;0.80;;;;;;;18.88;30.53;99929.00;4491388;31;33504;-79
2023/10/09 12:11:28;;;;;;;0.52;0.50;;;;;;;18.92;31.23;99933.22;4491129;31;33423;-80
2023/10/09 12:14:00;;;;;;;3.05;1.30;;;;;;;18.94;30.92;99942.75;4488145;31;33053;-79
2023/10/09 12:16:32;;;;;;;1.77;0.88;;;;;;;19.06;32.26;99925.56;4476097;32;33659;-79
2023/10/09 12:19:02;;;;;;;1.48;0.70;;;;;;;18.95;34.08;99905.00;4481148;32;33790;-80
2023/10/09 12:21:31;;;;;;;3.08;0.90;;;;;;;18.88;34.18;99898.31;4473140;32;34529;-81
2023/10/09 12:24:00;;;;;;;1.17;0.85;;;;;;;18.97;35.20;99891.81;4478075;31;33212;-81
2023/10/09 12:26:34;;;;;;;0.60;0.43;;;;;;;19.08;34.64;99881.63;4491674;31;33878;-80
2023/10/09 12:29:10;;;;;;;2.58;0.60;;;;;;;19.01;35.23;99888.09;4483186;31;35253;-82
2023/10/09 12:31:45;;;;;;;1.90;1.08;;;;;;;18.97;35.17;99897.91;4482148;32;33641;-79
2023/10/09 12:34:16;;;;;;;1.12;0.62;;;;;;;19.05;36.14;99901.97;4475822;31;33670;-79
2023/10/09 12:36:46;;;;;;;1.50;0.73;;;;;;;19.03;36.32;99891.53;4481485;31;32088;-81
2023/10/09 12:39:18;;;;;;;1.85;0.80;;;;;;;19.18;37.78;99868.94;4476158;32;33639;-80
2023/10/09 12:41:47;;;;;;;2.83;0.77;;;;;;;19.15;36.96;99863.81;4482034;32;33760;-80
2023/10/09 12:44:18;;;;;;;1.42;0.77;;;;;;;19.22;36.12;99864.41;4475569;32;33833;-79
2023/10/09 12:46:52;;;;;;;0.60;0.55;;;;;;;19.47;37.30;99866.72;4476490;32;33684;-79
2023/10/09 12:49:25;;;;;;;1.33;0.68;;;;;;;19.45;36.82;99887.00;4475949;32;33818;-80
2023/10/09 12:51:54;;;;;;;2.70;0.70;;;;;;;19.33;39.11;99884.03;4476021;32;33783;-80
2023/10/09 12:54:26;;;;;;;6.85;2.67;;;;;;;19.52;39.84;99891.91;4481602;32;33020;-81
2023/10/09 12:56:57;;;;;;;3.37;0.73;;;;;;;19.55;38.09;99881.25;4476148;32;33677;-81
2023/10/09 12:59:28;;;;;;;0.73;0.60;;;;;;;19.66;37.81;99875.44;4473598;31;33962;-80
2023/10/09 13:01:58;;;;;;;1.25;0.75;;;;;;;19.70;38.05;99869.16;4489567;31;32118;-81
2023/10/09 13:04:31;;;;;;;1.20;0.62;;;;;;;19.76;37.59;99863.56;4484737;31;33295;-80
2023/10/09 13:07:04;;;;;;;0.65;0.57;;;;;;;19.80;38.13;99859.03;4481522;32;34465;-80
2023/10/09 13:09:42;;;;;;;1.15;0.82;;;;;;;19.72;37.02;99863.84;4480461;31;33613;-81
2023/10/09 13:12:17;;;;;;;1.85;0.82;;;;;;;19.61;38.18;99857.25;4482613;31;34417;-80
2023/10/09 13:14:49;;;;;;;1.20;0.80;;;;;;;19.29;40.96;99871.94;4483846;31;33047;-81